Flight Track Log - Related Links

Times and Time Zones

All times are in EDT time to prevent confusion due to time zone crossing. See the SWA3938 flight status page for this flight to view local times or setup timezone preferences in your user account.


Time Position Orientation Groundspeed Altitude Reporting Facility
EDT Latitude Longitude Course Direction KTS MPH feet Rate Location/Type
Wed 09:28:39 AM 33.9150 -118.4717 211° Southwest 240 276 3,500  Level Los Angeles Center
Wed 09:29:40 AM 33.8550 -118.5144 211° Southwest 263 303 6,900 3,295 Climbing Los Angeles Center
Wed 09:30:41 AM 33.7917 -118.5169 182° South 259 298 10,200 2,976 Climbing Los Angeles Center
Wed 09:31:43 AM 33.6953 -118.4967 170° South 331 381 13,000 3,073 Climbing Los Angeles Center
Wed 09:32:44 AM 33.6575 -118.3928 114° Southeast 347 399 16,500 2,656 Climbing Los Angeles Center
Wed 09:33:45 AM 33.6433 -118.2653 98° East 401 461 18,400 2,439 Climbing Los Angeles Center
Wed 09:34:47 AM 33.6447 -118.1242 89° East 429 494 21,500 3,073 Climbing Los Angeles Center
Wed 09:35:48 AM 33.6447 -117.9461 90° East 448 516 24,700 2,656 Climbing Los Angeles Center
Wed 09:36:49 AM 33.6439 -117.7903 90° East 467 537 26,900 2,195 Climbing Los Angeles Center
Wed 09:37:51 AM 33.6428 -117.6275 90° East 485 558 29,200 2,390 Climbing Los Angeles Center
Wed 09:38:52 AM 33.6428 -117.4661 90° East 487 560 31,800 1,854 Climbing Los Angeles Center
Wed 09:39:54 AM 33.6411 -117.3069 91° East 482 555 33,000 585 Climbing Los Angeles Center
Wed 09:40:55 AM 33.6400 -117.1469 90° East 482 555 33,000  Level Los Angeles Center
Wed 09:41:56 AM 33.6381 -116.9889 91° East 478 550 33,000  Level Los Angeles Center
Wed 09:42:58 AM 33.6367 -116.8108 90° East 474 545 33,000  Level Los Angeles Center
Wed 09:43:59 AM 33.6344 -116.6514 91° East 475 547 33,000  Level Los Angeles Center
Wed 09:45:01 AM 33.6328 -116.4933 91° East 475 547 33,000  Level Los Angeles Center
Wed 09:46:02 AM 33.6303 -116.3339 91° East 476 548 33,000  Level Los Angeles Center
Wed 09:47:04 AM 33.6275 -116.1742 91° East 477 549 33,000  Level Los Angeles Center
Wed 09:48:05 AM 33.6247 -116.0144 91° East 478 550 33,000  Level Los Angeles Center
Wed 09:49:07 AM 33.6219 -115.8558 91° East 476 548 33,000  Level Los Angeles Center
Wed 09:50:08 AM 33.6186 -115.6964 91° East 477 549 33,000  Level Los Angeles Center
Wed 09:51:10 AM 33.6142 -115.5044 92° East 480 552 33,000  Level Los Angeles Center
Wed 09:52:12 AM 33.6092 -115.3458 92° East 476 548 33,000  Level Los Angeles Center
Wed 09:53:13 AM 33.6061 -115.1864 91° East 480 552 33,000  Level Los Angeles Center
Wed 09:54:27 AM 33.6014 -114.9983 92° East 471 542 33,000  Level Los Angeles Center
Wed 09:55:29 AM 33.5967 -114.8408 92° East 472 543 33,000  Level Los Angeles Center
Wed 09:56:30 AM 33.5803 -114.6875 97° East 464 534 33,000  Level Los Angeles Center
Wed 09:57:32 AM 33.5517 -114.5361 103° East 466 536 33,000 -1,161 Level Los Angeles Center
Wed 09:58:34 AM 33.5217 -114.3875 104° East 461 531 30,600 -2,786 Descending Los Angeles Center
Wed 09:59:24 AM 33.4967 -114.2453 102° East 459 528 27,800 -2,973 Descending Albuquerque Center
Wed 10:00:25 AM 33.4683 -114.1039 103° East 443 510 25,100 -1,366 Descending Albuquerque Center
Wed 10:01:27 AM 33.4419 -113.9681 103° East 424 488 25,000 -49 Descending Albuquerque Center
Wed 10:02:28 AM 33.4139 -113.8367 104° East 412 474 25,000  Level Albuquerque Center
Wed 10:03:30 AM 33.3872 -113.7036 103° East 410 472 25,000 -439 Level Albuquerque Center
Wed 10:04:31 AM 33.3603 -113.5700 104° East 412 474 24,100 -1,512 Descending Albuquerque Center
Wed 10:05:33 AM 33.3336 -113.4406 104° East 406 467 21,900 -1,610 Descending Albuquerque Center
Wed 10:06:34 AM 33.3031 -113.2892 104° East 393 452 20,800 -1,707 Descending Albuquerque Center
Wed 10:07:36 AM 33.2772 -113.1672 104° East 384 442 18,400 -1,902 Descending Albuquerque Center
Wed 10:08:37 AM 33.2753 -113.0456 91° East 369 425 16,900 -732 Descending Albuquerque Center
Wed 10:09:39 AM 33.2775 -112.9286 89° East 356 410 16,900 -484 Level Albuquerque Center
Wed 10:10:41 AM 33.2806 -112.8156 88° East 345 397 15,900 -488 Descending Albuquerque Center
Wed 10:11:42 AM 33.2817 -112.7072 89° East 333 383 15,900 -537 Level Albuquerque Center
Wed 10:12:44 AM 33.2856 -112.5867 88° East 316 364 14,800 -1,306 Descending Albuquerque Center
Wed 10:13:46 AM 33.2881 -112.4989 88° East 305 351 13,200 -1,561 Descending Albuquerque Center
Wed 10:14:47 AM 33.2906 -112.3978 88° East 305 351 11,600 -1,073 Descending Albuquerque Center
Wed 10:15:49 AM 33.2956 -112.3006 86° East 297 342 11,000 -1,016 Descending Albuquerque Center
Wed 10:16:51 AM 33.3042 -112.1872 85° East 288 331 9,500 -1,065 Descending Albuquerque Center
Wed 10:17:53 AM 33.3103 -112.0956 85° East 280 322 8,800 -823 Descending Albuquerque Center
Wed 10:18:55 AM 33.3311 -112.0175 72° East 253 291 7,800 -976 Descending Albuquerque Center
Wed 10:19:56 AM 33.3475 -111.9400 76° East 243 280 6,800 -1,122 Descending Albuquerque Center
Wed 10:20:58 AM 33.3458 -111.8633 91° East 232 267 5,500 -1,548 Descending Albuquerque Center
Wed 10:22:00 AM 33.3986 -111.8508 11° North 206 237 3,600 -1,500 Descending Albuquerque Center
Wed 10:23:02 AM 33.4275 -111.9133 299° West 170 196 2,400 -871 Descending Albuquerque Center
Wed 10:24:04 AM 33.4300 -111.9603 274° West 142 163 1,800 -629 Descending Albuquerque Center
Wed 10:25:06 AM 33.4283 -112.0036 267° West 134 154 1,100 -677 Descending Albuquerque Center

Login

Don't have an account? Register now (free) for customized features, flight alerts, and more!